createdAt,value
2023-05-14T00:00:36.638Z,4.28
2023-05-14T00:03:03.759Z,4.60
2023-05-14T00:05:30.597Z,4.60
2023-05-14T00:07:57.342Z,4.38
2023-05-14T00:10:24.362Z,4.38
2023-05-14T00:12:52.094Z,4.60
2023-05-14T00:15:19.550Z,4.40
2023-05-14T00:17:46.570Z,4.20
2023-05-14T00:20:13.396Z,4.63
2023-05-14T00:22:40.946Z,4.75
2023-05-14T00:25:09.057Z,4.68
2023-05-14T00:27:37.960Z,4.78
2023-05-14T00:30:07.042Z,4.50
2023-05-14T00:32:34.182Z,5.18
2023-05-14T00:35:03.085Z,5.53
2023-05-14T00:37:30.156Z,5.10
2023-05-14T00:39:57.137Z,4.95
2023-05-14T00:42:23.877Z,5.13
2023-05-14T00:44:50.691Z,5.15
2023-05-14T00:47:17.446Z,4.88
2023-05-14T00:49:44.343Z,5.28
2023-05-14T00:52:11.895Z,5.22
2023-05-14T00:54:38.940Z,4.68
2023-05-14T00:57:06.818Z,5.13
2023-05-14T00:59:34.070Z,5.28
2023-05-14T01:02:00.865Z,5.20
2023-05-14T01:04:27.887Z,5.15
2023-05-14T01:07:31.754Z,5.18
2023-05-14T01:10:10.154Z,5.40
2023-05-14T01:12:58.325Z,5.65
2023-05-14T01:15:29.053Z,4.85
2023-05-14T01:17:59.968Z,5.47
2023-05-14T01:20:27.349Z,4.50
2023-05-14T01:22:54.064Z,4.72
2023-05-14T01:25:21.249Z,4.50
2023-05-14T01:28:12.760Z,5.13
2023-05-14T01:33:11.189Z,4.80
2023-05-14T01:35:38.244Z,4.50
2023-05-14T01:38:09.561Z,4.57
2023-05-14T01:43:04.772Z,4.65
2023-05-14T01:45:32.158Z,4.60
2023-05-14T01:47:58.948Z,5.07
2023-05-14T01:50:26.000Z,4.82
2023-05-14T01:52:56.854Z,4.15
2023-05-14T01:55:24.669Z,4.70
2023-05-14T01:57:52.523Z,4.13
2023-05-14T02:00:20.535Z,4.40
2023-05-14T02:02:47.375Z,4.38
2023-05-14T02:05:14.233Z,4.40
2023-05-14T02:07:41.099Z,4.18
2023-05-14T02:10:08.550Z,3.70
2023-05-14T02:12:35.463Z,3.45
2023-05-14T02:15:03.898Z,3.72
2023-05-14T02:17:30.716Z,4.20
2023-05-14T02:19:57.505Z,3.90
2023-05-14T02:22:24.296Z,3.65
2023-05-14T02:24:51.604Z,4.32
2023-05-14T02:27:18.677Z,4.00
2023-05-14T02:29:45.564Z,3.75
2023-05-14T02:32:12.398Z,4.10
2023-05-14T02:34:39.262Z,3.40
2023-05-14T02:37:06.181Z,3.42
2023-05-14T02:39:33.037Z,3.78
2023-05-14T02:41:59.810Z,3.40
2023-05-14T02:44:26.591Z,3.08
2023-05-14T02:46:53.365Z,3.35
2023-05-14T02:49:20.132Z,3.50
2023-05-14T02:51:47.055Z,3.42
2023-05-14T02:54:13.822Z,3.60
2023-05-14T02:56:40.540Z,3.67
2023-05-14T02:59:07.352Z,3.28
2023-05-14T03:01:34.620Z,3.63
2023-05-14T03:04:01.935Z,3.50
2023-05-14T03:06:28.759Z,3.58
2023-05-14T03:08:55.512Z,3.17
2023-05-14T03:11:22.277Z,4.35
2023-05-14T03:13:49.152Z,3.67
2023-05-14T03:16:16.069Z,3.58
2023-05-14T03:18:42.913Z,3.60
2023-05-14T03:21:09.799Z,3.40
2023-05-14T03:23:36.498Z,3.45
2023-05-14T03:26:03.894Z,3.28
2023-05-14T03:28:31.117Z,3.58
2023-05-14T03:30:58.055Z,3.40
2023-05-14T03:33:24.919Z,3.42
2023-05-14T03:35:52.006Z,2.97
2023-05-14T03:38:18.757Z,3.47
2023-05-14T03:40:45.764Z,3.45
2023-05-14T03:43:12.598Z,3.63
2023-05-14T03:45:40.600Z,3.20
2023-05-14T03:48:07.584Z,3.40
2023-05-14T03:50:34.421Z,3.55
2023-05-14T03:53:01.252Z,3.60
2023-05-14T03:55:28.109Z,4.00
2023-05-14T03:57:54.880Z,3.60
2023-05-14T04:00:22.257Z,3.83
2023-05-14T04:02:49.249Z,3.95
2023-05-14T04:05:16.102Z,4.38
2023-05-14T04:07:42.895Z,3.83
2023-05-14T04:10:09.907Z,3.72
2023-05-14T04:12:36.690Z,4.00
2023-05-14T04:15:03.843Z,4.55
2023-05-14T04:17:30.621Z,4.25
2023-05-14T04:19:57.405Z,4.18
2023-05-14T04:22:24.128Z,4.25
2023-05-14T04:24:51.802Z,4.88
2023-05-14T04:27:22.095Z,4.15
2023-05-14T04:29:50.293Z,4.50
2023-05-14T04:32:17.878Z,4.70
2023-05-14T04:34:44.976Z,4.60
2023-05-14T04:37:11.864Z,5.22
2023-05-14T04:39:38.921Z,5.18
2023-05-14T04:42:06.913Z,4.93
2023-05-14T04:44:35.272Z,5.32
2023-05-14T04:47:02.350Z,4.97
2023-05-14T04:49:29.682Z,4.97
2023-05-14T04:51:56.532Z,5.22
2023-05-14T04:54:23.348Z,5.63
2023-05-14T04:56:50.979Z,5.72
2023-05-14T04:59:17.809Z,5.45
2023-05-14T05:01:46.004Z,5.32
2023-05-14T05:04:13.150Z,6.15
2023-05-14T05:06:40.101Z,5.53
2023-05-14T05:09:06.884Z,6.05
2023-05-14T05:11:33.661Z,5.88
2023-05-14T05:14:00.635Z,5.97
2023-05-14T05:16:27.487Z,6.28
2023-05-14T05:18:54.399Z,6.28
2023-05-14T05:21:21.224Z,6.57
2023-05-14T05:23:47.964Z,5.65
2023-05-14T05:26:14.734Z,5.72
2023-05-14T05:28:41.464Z,6.13
2023-05-14T05:31:08.449Z,5.82
2023-05-14T05:33:35.916Z,6.00
2023-05-14T05:36:02.936Z,6.38
2023-05-14T05:38:29.705Z,6.47
2023-05-14T05:40:56.563Z,6.50
2023-05-14T05:43:23.306Z,6.18
2023-05-14T05:45:50.071Z,6.07
2023-05-14T05:48:17.101Z,6.32
2023-05-14T05:50:47.609Z,5.95
2023-05-14T05:53:16.635Z,6.87
2023-05-14T05:55:43.397Z,6.80
2023-05-14T05:58:10.152Z,6.45
2023-05-14T06:00:37.004Z,6.68
2023-05-14T06:03:03.828Z,6.15
2023-05-14T06:05:30.687Z,6.78
2023-05-14T06:07:57.531Z,7.18
2023-05-14T06:10:24.660Z,6.45
2023-05-14T06:12:51.552Z,7.20
2023-05-14T06:15:18.974Z,7.00
2023-05-14T06:17:46.291Z,5.82
2023-05-14T06:20:13.316Z,6.25
2023-05-14T06:22:40.128Z,6.45
2023-05-14T06:25:07.425Z,6.55
2023-05-14T06:27:34.162Z,6.18
2023-05-14T06:30:01.505Z,6.28
2023-05-14T06:32:28.350Z,5.68
2023-05-14T06:34:55.082Z,5.78
2023-05-14T06:37:21.851Z,5.22
2023-05-14T06:39:50.556Z,6.10
2023-05-14T06:42:17.568Z,6.38
2023-05-14T06:44:45.268Z,5.72
2023-05-14T06:47:12.038Z,5.53
2023-05-14T06:49:39.217Z,5.72
2023-05-14T06:52:06.507Z,5.40
2023-05-14T06:54:33.299Z,5.75
2023-05-14T06:57:00.150Z,6.38
2023-05-14T06:59:26.981Z,5.55
2023-05-14T07:01:53.788Z,6.03
2023-05-14T07:04:20.737Z,6.15
2023-05-14T07:06:47.550Z,5.85
2023-05-14T07:09:14.591Z,5.85
2023-05-14T07:11:41.721Z,5.38
2023-05-14T07:14:08.819Z,5.60
2023-05-14T07:16:36.115Z,5.43
2023-05-14T07:19:02.979Z,5.07
2023-05-14T07:21:29.795Z,5.65
2023-05-14T07:23:56.649Z,4.70
2023-05-14T07:26:24.613Z,3.30
2023-05-14T07:28:51.436Z,2.15
2023-05-14T07:31:18.282Z,2.17
2023-05-14T07:33:45.225Z,1.05
2023-05-14T07:36:12.152Z,1.00
2023-05-14T07:38:38.913Z,0.70
2023-05-14T07:41:05.770Z,0.60
2023-05-14T07:43:32.585Z,0.70
2023-05-14T07:45:59.412Z,0.50
2023-05-14T07:48:26.340Z,0.45
2023-05-14T07:50:53.245Z,0.50
2023-05-14T07:53:19.965Z,0.47
2023-05-14T07:55:48.511Z,0.40
2023-05-14T07:58:16.249Z,0.32
2023-05-14T08:00:43.317Z,0.50
2023-05-14T08:03:10.133Z,0.40
2023-05-14T08:05:37.058Z,0.40
2023-05-14T08:08:03.922Z,0.50
2023-05-14T08:10:31.079Z,0.40
2023-05-14T08:12:57.899Z,0.60
2023-05-14T08:15:27.533Z,0.55
2023-05-14T08:17:54.922Z,0.73
2023-05-14T08:20:22.601Z,0.57
2023-05-14T08:22:49.564Z,1.00
2023-05-14T08:25:16.476Z,1.73
2023-05-14T08:27:43.260Z,2.10
2023-05-14T08:30:10.417Z,1.88
2023-05-14T08:32:38.752Z,1.70
2023-05-14T08:35:06.096Z,1.65
2023-05-14T08:37:32.914Z,2.00
2023-05-14T08:40:00.052Z,1.42
2023-05-14T08:42:28.757Z,1.35
2023-05-14T08:45:04.566Z,1.23
2023-05-14T08:47:32.002Z,1.20
2023-05-14T08:50:04.531Z,1.40
2023-05-14T08:52:31.893Z,1.23
2023-05-14T08:55:04.560Z,1.13
2023-05-14T08:57:33.135Z,1.63
2023-05-14T09:00:00.535Z,2.25
2023-05-14T09:02:31.640Z,0.95
2023-05-14T09:05:03.919Z,1.45
2023-05-14T09:07:30.732Z,1.50
2023-05-14T09:09:57.561Z,1.27
2023-05-14T09:12:24.504Z,0.90
2023-05-14T09:14:51.616Z,0.77
2023-05-14T09:17:19.375Z,0.70
2023-05-14T09:19:49.709Z,0.57
2023-05-14T09:22:18.374Z,0.70
2023-05-14T09:24:45.855Z,0.40
2023-05-14T09:27:22.061Z,0.40
2023-05-14T09:29:48.823Z,0.60
2023-05-14T09:32:15.644Z,0.50
2023-05-14T09:34:42.495Z,0.90
2023-05-14T09:37:10.290Z,1.40
2023-05-14T09:39:38.215Z,0.88
2023-05-14T09:42:05.655Z,1.00
2023-05-14T09:44:32.636Z,0.60
2023-05-14T09:46:59.528Z,0.90
2023-05-14T09:49:26.340Z,1.13
2023-05-14T09:51:53.149Z,1.08
2023-05-14T09:54:20.032Z,1.10
2023-05-14T09:56:46.825Z,1.17
2023-05-14T09:59:14.055Z,1.17
2023-05-14T10:01:43.269Z,1.10
2023-05-14T10:04:11.927Z,1.10
2023-05-14T10:06:40.266Z,0.95
2023-05-14T10:09:18.940Z,0.82
2023-05-14T10:11:52.777Z,1.20
2023-05-14T10:14:36.225Z,1.08
2023-05-14T10:17:03.427Z,1.52
2023-05-14T10:19:35.284Z,1.23
2023-05-14T10:22:07.810Z,1.20
2023-05-14T10:24:35.436Z,0.93
2023-05-14T10:27:02.861Z,1.20
2023-05-14T10:29:37.987Z,1.45
2023-05-14T10:32:07.174Z,1.20
2023-05-14T10:34:40.993Z,1.20
2023-05-14T10:37:26.721Z,1.10
2023-05-14T10:39:54.562Z,1.60
2023-05-14T10:42:31.807Z,1.27
2023-05-14T10:45:02.008Z,1.42
2023-05-14T10:47:29.615Z,1.60
2023-05-14T10:49:58.825Z,1.60
2023-05-14T10:52:26.637Z,2.00
2023-05-14T10:55:01.962Z,2.50
2023-05-14T10:57:31.824Z,1.85
2023-05-14T11:00:01.299Z,1.30
2023-05-14T11:02:33.861Z,1.48
2023-05-14T11:05:04.019Z,1.20
2023-05-14T11:07:42.158Z,1.73
2023-05-14T11:10:14.105Z,1.70
2023-05-14T11:12:43.354Z,1.58
2023-05-14T11:15:11.967Z,1.60
2023-05-14T11:17:41.496Z,2.15
2023-05-14T11:20:08.989Z,2.08
2023-05-14T11:22:37.194Z,1.40
2023-05-14T11:25:04.577Z,1.92
2023-05-14T11:27:34.480Z,2.22
2023-05-14T11:30:01.946Z,1.95
2023-05-14T11:32:28.804Z,1.90
2023-05-14T11:34:56.240Z,2.05
2023-05-14T11:37:23.102Z,2.10
2023-05-14T11:39:54.306Z,1.63
2023-05-14T11:44:51.903Z,2.20
2023-05-14T11:47:20.851Z,2.15
2023-05-14T11:49:48.731Z,2.10
2023-05-14T11:52:16.740Z,1.88
2023-05-14T11:54:44.578Z,1.73
2023-05-14T11:57:17.061Z,1.48
2023-05-14T11:59:44.138Z,1.73
2023-05-14T12:02:14.993Z,1.55
2023-05-14T12:04:43.003Z,1.70
2023-05-14T12:07:13.075Z,1.58
2023-05-14T12:09:50.092Z,2.55
2023-05-14T12:12:23.135Z,2.25
2023-05-14T12:14:51.184Z,2.08
2023-05-14T12:17:20.138Z,2.00
2023-05-14T12:19:49.459Z,1.60
2023-05-14T12:22:19.499Z,1.88
2023-05-14T12:24:55.855Z,1.80
2023-05-14T12:27:27.158Z,1.90
2023-05-14T12:30:20.088Z,1.27
2023-05-14T12:32:53.021Z,2.72
2023-05-14T12:35:21.600Z,1.45
2023-05-14T12:37:48.426Z,1.85
2023-05-14T12:40:15.447Z,1.48
2023-05-14T12:42:42.270Z,1.50
2023-05-14T12:45:09.322Z,1.40
2023-05-14T12:47:37.323Z,1.48
2023-05-14T12:50:05.163Z,1.67
2023-05-14T12:55:01.844Z,1.45
2023-05-14T12:57:30.256Z,1.73
2023-05-14T12:59:57.774Z,1.40
2023-05-14T13:02:24.517Z,1.58
2023-05-14T13:04:51.261Z,1.40
2023-05-14T13:07:18.028Z,1.15
2023-05-14T13:09:44.822Z,1.52
2023-05-14T13:12:11.655Z,1.40
2023-05-14T13:14:38.375Z,2.08
2023-05-14T13:17:05.829Z,1.80
2023-05-14T13:19:32.663Z,1.40
2023-05-14T13:21:59.368Z,1.52
2023-05-14T13:24:26.307Z,1.30
2023-05-14T13:26:53.057Z,1.13
2023-05-14T13:29:19.761Z,1.55
2023-05-14T13:31:46.664Z,1.13
2023-05-14T13:34:13.450Z,1.05
2023-05-14T13:36:40.826Z,0.95
2023-05-14T13:39:07.664Z,1.13
2023-05-14T13:41:38.021Z,1.20
2023-05-14T13:44:05.046Z,1.00
2023-05-14T13:46:32.302Z,1.20
2023-05-14T13:48:59.179Z,1.05
2023-05-14T13:51:25.914Z,1.27
2023-05-14T13:56:24.412Z,0.93
2023-05-14T13:58:51.304Z,0.90
2023-05-14T14:01:18.213Z,1.17
2023-05-14T14:03:44.977Z,1.10
2023-05-14T14:06:12.057Z,1.02
2023-05-14T14:08:38.886Z,1.30
2023-05-14T14:11:05.896Z,1.00
2023-05-14T14:13:32.682Z,1.58
2023-05-14T14:15:59.551Z,1.10
2023-05-14T14:18:26.912Z,1.33
2023-05-14T14:20:53.799Z,2.38
2023-05-14T14:23:20.544Z,2.45
2023-05-14T14:25:47.299Z,1.77
2023-05-14T14:28:14.069Z,1.20
2023-05-14T14:30:41.266Z,1.08
2023-05-14T14:33:08.122Z,0.98
2023-05-14T14:35:35.869Z,1.20
2023-05-14T14:38:02.654Z,1.30
2023-05-14T14:40:29.852Z,1.00
2023-05-14T14:42:56.647Z,1.15
2023-05-14T14:45:23.694Z,1.17
2023-05-14T14:47:51.349Z,1.15
2023-05-14T14:50:18.142Z,1.10
2023-05-14T14:52:46.085Z,1.35
2023-05-14T14:55:13.114Z,1.70
2023-05-14T14:57:40.039Z,1.48
2023-05-14T15:00:07.523Z,1.45
2023-05-14T15:02:34.808Z,1.40
2023-05-14T15:05:01.891Z,0.93
2023-05-14T15:07:32.992Z,1.13
2023-05-14T15:12:26.506Z,0.85
2023-05-14T15:14:53.552Z,1.98
2023-05-14T15:17:20.407Z,1.50
2023-05-14T15:19:47.664Z,0.70
2023-05-14T15:22:14.515Z,0.80
2023-05-14T15:24:41.240Z,0.98
2023-05-14T15:27:07.983Z,1.02
2023-05-14T15:29:34.768Z,1.13
2023-05-14T15:32:02.406Z,1.15
2023-05-14T15:34:29.321Z,0.90
2023-05-14T15:36:56.093Z,1.90
2023-05-14T15:39:22.832Z,0.93
2023-05-14T15:41:49.541Z,0.88
2023-05-14T15:44:16.397Z,0.77
2023-05-14T15:46:43.163Z,0.77
2023-05-14T15:49:10.099Z,0.80
2023-05-14T15:51:36.897Z,0.60
2023-05-14T15:54:03.789Z,0.88
2023-05-14T15:56:31.026Z,0.60
2023-05-14T15:58:57.788Z,1.02
2023-05-14T16:01:24.568Z,0.65
2023-05-14T16:03:52.681Z,0.63
2023-05-14T16:06:19.611Z,0.98
2023-05-14T16:08:46.383Z,0.80
2023-05-14T16:11:13.131Z,0.60
2023-05-14T16:13:41.674Z,0.90
2023-05-14T16:16:08.519Z,1.30
2023-05-14T16:18:35.332Z,0.85
2023-05-14T16:21:02.658Z,0.73
2023-05-14T16:23:29.461Z,0.73
2023-05-14T16:25:56.206Z,1.23
2023-05-14T16:28:23.015Z,0.85
2023-05-14T16:30:49.837Z,1.27
2023-05-14T16:33:16.592Z,1.30
2023-05-14T16:35:43.529Z,1.05
2023-05-14T16:38:10.323Z,1.27
2023-05-14T16:40:37.057Z,1.08
2023-05-14T16:43:03.926Z,1.00
2023-05-14T16:45:32.702Z,0.75
2023-05-14T16:48:01.120Z,0.85
2023-05-14T16:50:28.197Z,0.73
2023-05-14T16:52:54.975Z,0.90
2023-05-14T16:55:21.845Z,0.77
2023-05-14T16:57:48.799Z,0.45
2023-05-14T17:00:16.304Z,0.63
2023-05-14T17:02:43.096Z,0.75
2023-05-14T17:05:10.109Z,0.60
2023-05-14T17:07:39.210Z,0.60
2023-05-14T17:10:07.076Z,0.60
2023-05-14T17:12:33.876Z,0.50
2023-05-14T17:15:02.982Z,1.17
2023-05-14T17:17:32.731Z,0.63
2023-05-14T17:20:00.926Z,0.50
2023-05-14T17:22:28.051Z,0.60
2023-05-14T17:24:54.787Z,0.47
2023-05-14T17:27:21.569Z,0.45
2023-05-14T17:29:51.127Z,0.60
2023-05-14T17:32:18.869Z,0.40
2023-05-14T17:34:45.832Z,0.40
2023-05-14T17:37:12.586Z,0.50
2023-05-14T17:39:39.303Z,0.70
2023-05-14T17:42:06.906Z,0.40
2023-05-14T17:44:33.620Z,0.50
2023-05-14T17:47:00.950Z,0.70
2023-05-14T17:49:27.809Z,0.80
2023-05-14T17:51:54.669Z,0.75
2023-05-14T17:54:21.378Z,0.60
2023-05-14T17:56:51.016Z,0.90
2023-05-14T17:59:17.881Z,0.70
2023-05-14T18:01:45.046Z,0.73
2023-05-14T18:04:11.963Z,0.60
2023-05-14T18:06:38.817Z,1.98
2023-05-14T18:09:05.643Z,0.70
2023-05-14T18:11:35.715Z,0.90
2023-05-14T18:14:03.207Z,0.90
2023-05-14T18:16:30.100Z,0.80
2023-05-14T18:18:56.957Z,0.68
2023-05-14T18:21:23.788Z,0.93
2023-05-14T18:23:50.710Z,0.93
2023-05-14T18:26:17.948Z,0.85
2023-05-14T18:28:44.767Z,1.13
2023-05-14T18:31:11.511Z,0.90
2023-05-14T18:33:38.374Z,1.52
2023-05-14T18:36:05.388Z,1.00
2023-05-14T18:38:32.174Z,1.15
2023-05-14T18:40:58.945Z,0.90
2023-05-14T18:43:26.335Z,0.85
2023-05-14T18:45:53.887Z,0.90
2023-05-14T18:48:20.698Z,2.55
2023-05-14T18:50:47.433Z,0.93
2023-05-14T18:53:14.230Z,0.90
2023-05-14T18:55:41.047Z,0.90
2023-05-14T18:58:08.455Z,1.23
2023-05-14T19:00:35.312Z,0.55
2023-05-14T19:03:03.616Z,0.80
2023-05-14T19:05:30.909Z,0.90
2023-05-14T19:07:57.796Z,0.52
2023-05-14T19:10:24.600Z,0.90
2023-05-14T19:12:51.345Z,1.20
2023-05-14T19:15:18.157Z,1.10
2023-05-14T19:17:45.067Z,0.88
2023-05-14T19:20:12.534Z,1.00
2023-05-14T19:22:39.279Z,1.40
2023-05-14T19:25:07.784Z,0.88
2023-05-14T19:27:37.185Z,1.30
2023-05-14T19:30:04.484Z,0.88
2023-05-14T19:32:31.301Z,0.70
2023-05-14T19:34:58.063Z,1.00
2023-05-14T19:37:24.779Z,0.90
2023-05-14T19:39:51.664Z,1.15
2023-05-14T19:42:18.575Z,1.00
2023-05-14T19:44:45.575Z,1.13
2023-05-14T19:47:12.577Z,1.63
2023-05-14T19:49:39.357Z,1.05
2023-05-14T19:52:06.657Z,1.10
2023-05-14T19:54:33.462Z,1.55
2023-05-14T19:57:00.526Z,1.40
2023-05-14T19:59:29.397Z,1.00
2023-05-14T20:01:56.241Z,1.42
2023-05-14T20:04:23.156Z,1.27
2023-05-14T20:06:49.891Z,1.38
2023-05-14T20:09:16.650Z,1.30
2023-05-14T20:11:43.415Z,1.77
2023-05-14T20:14:10.135Z,1.17
2023-05-14T20:16:37.146Z,1.13
2023-05-14T20:19:04.190Z,1.30
2023-05-14T20:21:30.957Z,1.30
2023-05-14T20:23:57.930Z,1.52
2023-05-14T20:26:24.671Z,0.93
2023-05-14T20:28:51.366Z,1.08
2023-05-14T20:31:19.252Z,1.33
2023-05-14T20:33:46.095Z,1.23
2023-05-14T20:36:12.920Z,1.30
2023-05-14T20:38:40.922Z,1.30
2023-05-14T20:41:08.129Z,1.38
2023-05-14T20:43:34.840Z,1.38
2023-05-14T20:46:02.302Z,1.63
2023-05-14T20:48:29.015Z,1.30
2023-05-14T20:50:55.860Z,1.92
2023-05-14T20:53:22.690Z,1.67
2023-05-14T20:55:49.516Z,1.08
2023-05-14T20:58:16.236Z,1.40
2023-05-14T21:00:43.668Z,1.50
2023-05-14T21:03:10.525Z,1.60
2023-05-14T21:05:37.359Z,1.40
2023-05-14T21:08:04.180Z,1.23
2023-05-14T21:10:30.880Z,1.45
2023-05-14T21:12:57.642Z,1.70
2023-05-14T21:15:24.608Z,1.58
2023-05-14T21:17:51.665Z,1.40
2023-05-14T21:20:18.607Z,1.80
2023-05-14T21:22:45.357Z,1.50
2023-05-14T21:25:12.132Z,1.85
2023-05-14T21:27:38.964Z,1.75
2023-05-14T21:30:06.411Z,1.88
2023-05-14T21:32:33.230Z,1.20
2023-05-14T21:35:00.043Z,1.40
2023-05-14T21:37:26.896Z,1.35
2023-05-14T21:39:53.629Z,1.38
2023-05-14T21:42:21.199Z,1.13
2023-05-14T21:44:48.030Z,1.67
2023-05-14T21:47:16.396Z,1.35
2023-05-14T21:49:43.457Z,1.67
2023-05-14T21:52:10.373Z,1.55
2023-05-14T21:54:37.095Z,1.70
2023-05-14T21:57:04.084Z,2.10
2023-05-14T21:59:30.901Z,1.92
2023-05-14T22:02:06.832Z,1.80
2023-05-14T22:04:35.348Z,1.50
2023-05-14T22:07:02.311Z,1.55
2023-05-14T22:09:29.182Z,1.80
2023-05-14T22:11:57.224Z,1.30
2023-05-14T22:14:24.146Z,1.50
2023-05-14T22:16:51.501Z,1.65
2023-05-14T22:19:18.417Z,1.40
2023-05-14T22:21:45.206Z,1.83
2023-05-14T22:24:11.947Z,1.77
2023-05-14T22:26:38.844Z,1.55
2023-05-14T22:29:05.614Z,2.08
2023-05-14T22:31:32.365Z,1.95
2023-05-14T22:33:59.212Z,2.33
2023-05-14T22:36:25.956Z,2.63
2023-05-14T22:38:52.764Z,2.05
2023-05-14T22:41:20.145Z,2.38
2023-05-14T22:43:48.730Z,1.55
2023-05-14T22:46:16.094Z,2.35
2023-05-14T22:48:43.078Z,1.67
2023-05-14T22:51:09.902Z,1.30
2023-05-14T22:53:36.874Z,1.90
2023-05-14T22:56:03.897Z,1.70
2023-05-14T22:58:30.851Z,1.67
2023-05-14T23:00:57.904Z,1.70
2023-05-14T23:03:24.764Z,1.83
2023-05-14T23:05:52.192Z,2.10
2023-05-14T23:08:19.018Z,1.23
2023-05-14T23:10:45.819Z,1.45
2023-05-14T23:13:12.732Z,1.48
2023-05-14T23:15:39.522Z,1.33
2023-05-14T23:18:07.814Z,1.70
2023-05-14T23:20:34.805Z,1.52
2023-05-14T23:23:01.554Z,1.10
2023-05-14T23:25:28.349Z,1.23
2023-05-14T23:27:55.099Z,1.40
2023-05-14T23:30:22.270Z,1.90
2023-05-14T23:32:49.026Z,2.40
2023-05-14T23:35:15.847Z,1.90
2023-05-14T23:37:49.558Z,1.63
2023-05-14T23:40:16.832Z,1.40
2023-05-14T23:42:44.841Z,1.60
2023-05-14T23:45:13.202Z,1.58
2023-05-14T23:47:40.978Z,1.70
2023-05-14T23:50:08.050Z,2.28
2023-05-14T23:52:34.794Z,1.60
2023-05-14T23:55:01.531Z,1.45
2023-05-14T23:57:28.443Z,2.22
2023-05-14T23:59:55.588Z,1.80
